気象予報士の航空気象 2週間ぶりの関東、雨?

*All archives   *Admin

2010.01.27 (Wed)

2週間ぶりの関東、雨?

RJTT 270530Z 17016KT 9999 FEW030 BKN/// 12/02 Q1020


RJTT 271230Z 27008KT CAVOK 07/M03 Q1019 RMK A3010


RJTT 271400Z 24012KT CAVOK 09/M02 Q1017 RMK A3005


 今日は暖かかったですね。


羽田空港では、午後2時過ぎには12度を記録。


その後、7度まで下がり、11時には南風により9度まで上昇。


明日は雨が降るそうです。


RJTT 271436Z 2715/2818 22012KT 9999 FEW030
TEMPO 2718/2724 22016G26KT
TEMPO 2800/2806 22026G36KT
BECMG 2806/2809 34014KT


TAFによれば、15時から18時あたりに寒冷前線が通過かなぁ。

 


ブログランキングに参加しています。
にほんブログ村 環境ブログ 天気・気象学へ
にほんブログ村
応援クリックをおねがします。


以下、アフィリエイトサイトです。




スポンサーサイト
23:53  |  気象・天気  |  TB(0)  |  CM(0)  |  EDIT  |  Top↑

コメントを投稿する


 管理者だけに表示  (非公開コメント投稿可能)

▲PageTop

この記事のトラックバックURL

→http://weathereucalyptus.blog115.fc2.com/tb.php/374-afff857a
この記事にトラックバックする(FC2ブログユーザー)

この記事へのトラックバック

▲PageTop

 | BLOGTOP |